sensor_id;sensor_type;location;lat;lon;timestamp;P1;durP1;ratioP1;P2;durP2;ratioP2
21402;SDS011;10862;51.886;17.078;2024-01-10T00:01:22;183.10;;;79.47;;
21402;SDS011;10862;51.886;17.078;2024-01-10T00:03:51;207.07;;;81.10;;
21402;SDS011;10862;51.886;17.078;2024-01-10T00:06:18;148.13;;;71.00;;
21402;SDS011;10862;51.886;17.078;2024-01-10T00:08:43;173.93;;;71.73;;
21402;SDS011;10862;51.886;17.078;2024-01-10T00:11:09;146.60;;;62.37;;
21402;SDS011;10862;51.886;17.078;2024-01-10T00:13:35;169.83;;;72.30;;
21402;SDS011;10862;51.886;17.078;2024-01-10T00:16:00;155.07;;;67.17;;
21402;SDS011;10862;51.886;17.078;2024-01-10T00:18:26;157.43;;;62.37;;
21402;SDS011;10862;51.886;17.078;2024-01-10T00:20:52;152.43;;;64.23;;
21402;SDS011;10862;51.886;17.078;2024-01-10T00:23:20;168.53;;;68.67;;
21402;SDS011;10862;51.886;17.078;2024-01-10T00:25:47;190.07;;;73.87;;
21402;SDS011;10862;51.886;17.078;2024-01-10T00:28:12;168.07;;;68.63;;
21402;SDS011;10862;51.886;17.078;2024-01-10T00:30:38;155.00;;;60.77;;
21402;SDS011;10862;51.886;17.078;2024-01-10T00:33:04;169.30;;;66.87;;
21402;SDS011;10862;51.886;17.078;2024-01-10T00:35:30;218.57;;;69.73;;
21402;SDS011;10862;51.886;17.078;2024-01-10T00:37:56;144.90;;;59.47;;
21402;SDS011;10862;51.886;17.078;2024-01-10T00:40:22;118.97;;;56.57;;
21402;SDS011;10862;51.886;17.078;2024-01-10T00:42:48;145.50;;;61.00;;
21402;SDS011;10862;51.886;17.078;2024-01-10T00:45:14;159.57;;;59.67;;
21402;SDS011;10862;51.886;17.078;2024-01-10T00:47:40;153.17;;;65.93;;
21402;SDS011;10862;51.886;17.078;2024-01-10T00:50:06;145.90;;;62.73;;
21402;SDS011;10862;51.886;17.078;2024-01-10T00:52:32;148.63;;;59.73;;
21402;SDS011;10862;51.886;17.078;2024-01-10T00:54:58;163.03;;;57.50;;
21402;SDS011;10862;51.886;17.078;2024-01-10T00:57:23;160.90;;;61.97;;
21402;SDS011;10862;51.886;17.078;2024-01-10T00:59:49;152.40;;;64.77;;
21402;SDS011;10862;51.886;17.078;2024-01-10T01:02:14;169.53;;;64.47;;
21402;SDS011;10862;51.886;17.078;2024-01-10T01:04:40;150.73;;;65.10;;
21402;SDS011;10862;51.886;17.078;2024-01-10T01:07:06;175.20;;;71.27;;
21402;SDS011;10862;51.886;17.078;2024-01-10T01:09:33;177.27;;;66.67;;
21402;SDS011;10862;51.886;17.078;2024-01-10T01:11:59;152.80;;;61.20;;
21402;SDS011;10862;51.886;17.078;2024-01-10T01:14:25;150.43;;;61.77;;
21402;SDS011;10862;51.886;17.078;2024-01-10T01:16:50;156.30;;;60.43;;
21402;SDS011;10862;51.886;17.078;2024-01-10T01:19:16;156.63;;;66.93;;
21402;SDS011;10862;51.886;17.078;2024-01-10T01:21:42;159.37;;;63.80;;
21402;SDS011;10862;51.886;17.078;2024-01-10T01:24:08;158.73;;;61.80;;
21402;SDS011;10862;51.886;17.078;2024-01-10T01:26:33;134.87;;;64.17;;
21402;SDS011;10862;51.886;17.078;2024-01-10T01:28:59;105.43;;;45.93;;
21402;SDS011;10862;51.886;17.078;2024-01-10T01:31:25;142.00;;;58.47;;
21402;SDS011;10862;51.886;17.078;2024-01-10T01:33:50;154.53;;;70.50;;
21402;SDS011;10862;51.886;17.078;2024-01-10T01:36:16;183.20;;;70.97;;
21402;SDS011;10862;51.886;17.078;2024-01-10T01:38:42;131.53;;;62.33;;
21402;SDS011;10862;51.886;17.078;2024-01-10T01:41:07;161.73;;;63.00;;
21402;SDS011;10862;51.886;17.078;2024-01-10T01:43:33;136.27;;;54.03;;
21402;SDS011;10862;51.886;17.078;2024-01-10T01:46:00;131.20;;;57.50;;
21402;SDS011;10862;51.886;17.078;2024-01-10T01:48:26;158.43;;;62.57;;
21402;SDS011;10862;51.886;17.078;2024-01-10T01:50:52;229.40;;;87.13;;
21402;SDS011;10862;51.886;17.078;2024-01-10T01:53:21;189.63;;;78.60;;
21402;SDS011;10862;51.886;17.078;2024-01-10T01:55:47;201.67;;;73.17;;
21402;SDS011;10862;51.886;17.078;2024-01-10T01:58:15;177.67;;;71.37;;
21402;SDS011;10862;51.886;17.078;2024-01-10T02:00:42;156.53;;;67.83;;
21402;SDS011;10862;51.886;17.078;2024-01-10T02:03:09;188.53;;;65.77;;
21402;SDS011;10862;51.886;17.078;2024-01-10T02:05:35;159.00;;;66.40;;
21402;SDS011;10862;51.886;17.078;2024-01-10T02:08:01;190.73;;;84.43;;
21402;SDS011;10862;51.886;17.078;2024-01-10T02:10:27;173.83;;;69.33;;
21402;SDS011;10862;51.886;17.078;2024-01-10T02:12:53;191.90;;;73.23;;
21402;SDS011;10862;51.886;17.078;2024-01-10T02:15:18;184.10;;;81.50;;
21402;SDS011;10862;51.886;17.078;2024-01-10T02:17:45;212.20;;;83.90;;
21402;SDS011;10862;51.886;17.078;2024-01-10T02:22:37;277.03;;;99.63;;
21402;SDS011;10862;51.886;17.078;2024-01-10T02:25:04;337.97;;;110.83;;
21402;SDS011;10862;51.886;17.078;2024-01-10T02:27:31;345.17;;;122.37;;
21402;SDS011;10862;51.886;17.078;2024-01-10T02:29:58;209.67;;;81.43;;
21402;SDS011;10862;51.886;17.078;2024-01-10T02:32:26;226.43;;;79.70;;
21402;SDS011;10862;51.886;17.078;2024-01-10T02:34:52;226.53;;;87.63;;
21402;SDS011;10862;51.886;17.078;2024-01-10T02:37:17;171.20;;;71.70;;
21402;SDS011;10862;51.886;17.078;2024-01-10T02:39:43;175.37;;;71.70;;
21402;SDS011;10862;51.886;17.078;2024-01-10T02:42:08;162.67;;;68.03;;
21402;SDS011;10862;51.886;17.078;2024-01-10T02:44:34;194.17;;;78.17;;
21402;SDS011;10862;51.886;17.078;2024-01-10T02:47:00;190.10;;;72.87;;
21402;SDS011;10862;51.886;17.078;2024-01-10T02:49:25;174.57;;;72.57;;
21402;SDS011;10862;51.886;17.078;2024-01-10T02:51:51;180.57;;;71.27;;
21402;SDS011;10862;51.886;17.078;2024-01-10T02:54:16;180.00;;;74.30;;
21402;SDS011;10862;51.886;17.078;2024-01-10T02:56:42;168.67;;;71.40;;
21402;SDS011;10862;51.886;17.078;2024-01-10T02:59:07;152.70;;;63.90;;
21402;SDS011;10862;51.886;17.078;2024-01-10T03:01:33;160.87;;;69.80;;
21402;SDS011;10862;51.886;17.078;2024-01-10T03:03:59;194.37;;;76.60;;
21402;SDS011;10862;51.886;17.078;2024-01-10T03:06:24;200.70;;;78.47;;
21402;SDS011;10862;51.886;17.078;2024-01-10T03:08:50;205.73;;;79.47;;
21402;SDS011;10862;51.886;17.078;2024-01-10T03:11:16;229.80;;;96.90;;
21402;SDS011;10862;51.886;17.078;2024-01-10T03:13:43;240.93;;;103.90;;
21402;SDS011;10862;51.886;17.078;2024-01-10T03:16:10;247.10;;;99.13;;
21402;SDS011;10862;51.886;17.078;2024-01-10T03:18:36;201.20;;;85.87;;
21402;SDS011;10862;51.886;17.078;2024-01-10T03:21:01;255.93;;;96.00;;
21402;SDS011;10862;51.886;17.078;2024-01-10T03:23:27;256.00;;;94.47;;
21402;SDS011;10862;51.886;17.078;2024-01-10T03:25:53;198.80;;;87.57;;
21402;SDS011;10862;51.886;17.078;2024-01-10T03:28:18;169.30;;;76.97;;
21402;SDS011;10862;51.886;17.078;2024-01-10T03:30:44;214.43;;;86.67;;
21402;SDS011;10862;51.886;17.078;2024-01-10T03:33:10;163.73;;;77.13;;
21402;SDS011;10862;51.886;17.078;2024-01-10T03:35:36;163.37;;;73.23;;
21402;SDS011;10862;51.886;17.078;2024-01-10T03:38:02;142.47;;;69.37;;
21402;SDS011;10862;51.886;17.078;2024-01-10T03:40:27;185.60;;;79.33;;
21402;SDS011;10862;51.886;17.078;2024-01-10T03:42:53;160.90;;;76.63;;
21402;SDS011;10862;51.886;17.078;2024-01-10T03:45:18;174.80;;;73.40;;
21402;SDS011;10862;51.886;17.078;2024-01-10T03:47:47;184.70;;;72.80;;
21402;SDS011;10862;51.886;17.078;2024-01-10T03:50:18;175.47;;;75.90;;
21402;SDS011;10862;51.886;17.078;2024-01-10T03:52:44;187.27;;;66.53;;
21402;SDS011;10862;51.886;17.078;2024-01-10T03:55:14;188.90;;;72.80;;
21402;SDS011;10862;51.886;17.078;2024-01-10T03:57:40;230.87;;;87.27;;
21402;SDS011;10862;51.886;17.078;2024-01-10T04:00:06;377.23;;;125.43;;
21402;SDS011;10862;51.886;17.078;2024-01-10T04:02:32;199.10;;;78.70;;
21402;SDS011;10862;51.886;17.078;2024-01-10T04:04:58;191.70;;;78.03;;
21402;SDS011;10862;51.886;17.078;2024-01-10T04:07:25;154.23;;;74.83;;
21402;SDS011;10862;51.886;17.078;2024-01-10T04:09:51;180.87;;;81.67;;
21402;SDS011;10862;51.886;17.078;2024-01-10T04:12:17;174.30;;;66.37;;
21402;SDS011;10862;51.886;17.078;2024-01-10T04:14:42;158.87;;;61.17;;
21402;SDS011;10862;51.886;17.078;2024-01-10T04:17:08;142.43;;;61.33;;
21402;SDS011;10862;51.886;17.078;2024-01-10T04:19:34;157.07;;;59.67;;
21402;SDS011;10862;51.886;17.078;2024-01-10T04:21:59;160.47;;;65.20;;
21402;SDS011;10862;51.886;17.078;2024-01-10T04:24:25;159.70;;;66.37;;
21402;SDS011;10862;51.886;17.078;2024-01-10T04:26:51;224.43;;;79.57;;
21402;SDS011;10862;51.886;17.078;2024-01-10T04:29:17;236.20;;;80.93;;
21402;SDS011;10862;51.886;17.078;2024-01-10T04:31:42;212.90;;;74.03;;
21402;SDS011;10862;51.886;17.078;2024-01-10T04:34:08;273.53;;;84.57;;
21402;SDS011;10862;51.886;17.078;2024-01-10T04:36:33;393.63;;;125.30;;
21402;SDS011;10862;51.886;17.078;2024-01-10T04:38:59;318.50;;;98.67;;
21402;SDS011;10862;51.886;17.078;2024-01-10T04:41:25;278.43;;;91.27;;
21402;SDS011;10862;51.886;17.078;2024-01-10T04:43:51;307.17;;;93.37;;
21402;SDS011;10862;51.886;17.078;2024-01-10T04:46:16;243.77;;;86.33;;
21402;SDS011;10862;51.886;17.078;2024-01-10T04:48:42;243.13;;;82.77;;
21402;SDS011;10862;51.886;17.078;2024-01-10T04:51:08;228.33;;;77.97;;
21402;SDS011;10862;51.886;17.078;2024-01-10T04:53:33;181.47;;;68.10;;
21402;SDS011;10862;51.886;17.078;2024-01-10T04:55:59;162.90;;;71.20;;
21402;SDS011;10862;51.886;17.078;2024-01-10T04:58:25;194.47;;;74.47;;
21402;SDS011;10862;51.886;17.078;2024-01-10T05:00:50;152.83;;;69.03;;
21402;SDS011;10862;51.886;17.078;2024-01-10T05:03:16;147.00;;;71.40;;
21402;SDS011;10862;51.886;17.078;2024-01-10T05:05:42;147.63;;;62.50;;
21402;SDS011;10862;51.886;17.078;2024-01-10T05:08:07;140.80;;;65.10;;
21402;SDS011;10862;51.886;17.078;2024-01-10T05:10:33;187.03;;;81.47;;
21402;SDS011;10862;51.886;17.078;2024-01-10T05:12:59;165.30;;;65.40;;
21402;SDS011;10862;51.886;17.078;2024-01-10T05:15:24;158.03;;;63.67;;
21402;SDS011;10862;51.886;17.078;2024-01-10T05:17:50;135.77;;;55.80;;
21402;SDS011;10862;51.886;17.078;2024-01-10T05:20:15;263.83;;;89.40;;
21402;SDS011;10862;51.886;17.078;2024-01-10T05:22:42;245.27;;;81.43;;
21402;SDS011;10862;51.886;17.078;2024-01-10T05:25:07;192.53;;;75.77;;
21402;SDS011;10862;51.886;17.078;2024-01-10T05:27:33;195.43;;;72.60;;
21402;SDS011;10862;51.886;17.078;2024-01-10T05:29:59;170.47;;;67.10;;
21402;SDS011;10862;51.886;17.078;2024-01-10T05:32:25;150.77;;;57.63;;
21402;SDS011;10862;51.886;17.078;2024-01-10T05:34:51;129.57;;;52.07;;
21402;SDS011;10862;51.886;17.078;2024-01-10T05:37:17;106.70;;;49.00;;
21402;SDS011;10862;51.886;17.078;2024-01-10T05:39:43;182.53;;;61.83;;
21402;SDS011;10862;51.886;17.078;2024-01-10T05:42:09;264.43;;;87.30;;
21402;SDS011;10862;51.886;17.078;2024-01-10T05:44:34;279.50;;;85.60;;
21402;SDS011;10862;51.886;17.078;2024-01-10T05:47:00;247.83;;;84.63;;
21402;SDS011;10862;51.886;17.078;2024-01-10T05:49:26;255.80;;;81.27;;
21402;SDS011;10862;51.886;17.078;2024-01-10T05:51:52;256.97;;;92.30;;
21402;SDS011;10862;51.886;17.078;2024-01-10T05:54:17;250.10;;;89.97;;
21402;SDS011;10862;51.886;17.078;2024-01-10T05:56:43;272.27;;;99.83;;
21402;SDS011;10862;51.886;17.078;2024-01-10T05:59:09;309.07;;;104.20;;
21402;SDS011;10862;51.886;17.078;2024-01-10T06:01:37;307.30;;;108.13;;
21402;SDS011;10862;51.886;17.078;2024-01-10T06:04:03;289.80;;;105.13;;
21402;SDS011;10862;51.886;17.078;2024-01-10T06:06:30;267.53;;;87.53;;
21402;SDS011;10862;51.886;17.078;2024-01-10T06:08:57;289.40;;;102.53;;
21402;SDS011;10862;51.886;17.078;2024-01-10T06:11:22;239.67;;;91.03;;
21402;SDS011;10862;51.886;17.078;2024-01-10T06:13:48;284.57;;;101.93;;
21402;SDS011;10862;51.886;17.078;2024-01-10T06:16:14;261.90;;;91.67;;
21402;SDS011;10862;51.886;17.078;2024-01-10T06:18:40;282.27;;;99.73;;
21402;SDS011;10862;51.886;17.078;2024-01-10T06:21:05;304.03;;;96.20;;
21402;SDS011;10862;51.886;17.078;2024-01-10T06:23:31;211.90;;;77.90;;
21402;SDS011;10862;51.886;17.078;2024-01-10T06:25:57;196.03;;;80.53;;
21402;SDS011;10862;51.886;17.078;2024-01-10T06:28:22;173.23;;;68.20;;
21402;SDS011;10862;51.886;17.078;2024-01-10T06:30:48;163.90;;;65.00;;
21402;SDS011;10862;51.886;17.078;2024-01-10T06:33:14;170.03;;;69.17;;
21402;SDS011;10862;51.886;17.078;2024-01-10T06:35:41;181.67;;;64.33;;
21402;SDS011;10862;51.886;17.078;2024-01-10T06:38:09;136.10;;;61.90;;
21402;SDS011;10862;51.886;17.078;2024-01-10T06:40:35;155.10;;;62.53;;
21402;SDS011;10862;51.886;17.078;2024-01-10T06:43:01;150.97;;;53.83;;
21402;SDS011;10862;51.886;17.078;2024-01-10T06:45:27;122.17;;;54.23;;
21402;SDS011;10862;51.886;17.078;2024-01-10T06:47:53;119.77;;;47.17;;
21402;SDS011;10862;51.886;17.078;2024-01-10T06:50:19;113.57;;;54.73;;
21402;SDS011;10862;51.886;17.078;2024-01-10T06:52:45;116.57;;;53.83;;
21402;SDS011;10862;51.886;17.078;2024-01-10T06:55:11;140.57;;;57.87;;
21402;SDS011;10862;51.886;17.078;2024-01-10T06:57:36;113.97;;;49.50;;
21402;SDS011;10862;51.886;17.078;2024-01-10T07:00:02;110.20;;;53.53;;
21402;SDS011;10862;51.886;17.078;2024-01-10T07:02:32;117.33;;;49.43;;
21402;SDS011;10862;51.886;17.078;2024-01-10T07:04:59;111.33;;;47.80;;
21402;SDS011;10862;51.886;17.078;2024-01-10T07:07:25;113.57;;;50.07;;
21402;SDS011;10862;51.886;17.078;2024-01-10T07:09:50;103.10;;;47.93;;
21402;SDS011;10862;51.886;17.078;2024-01-10T07:12:16;118.80;;;52.77;;
21402;SDS011;10862;51.886;17.078;2024-01-10T07:14:42;109.93;;;52.80;;
21402;SDS011;10862;51.886;17.078;2024-01-10T07:17:07;110.67;;;50.30;;
21402;SDS011;10862;51.886;17.078;2024-01-10T07:19:33;128.50;;;48.90;;
21402;SDS011;10862;51.886;17.078;2024-01-10T07:21:58;121.97;;;45.60;;
21402;SDS011;10862;51.886;17.078;2024-01-10T07:24:24;98.17;;;47.50;;
21402;SDS011;10862;51.886;17.078;2024-01-10T07:26:49;126.53;;;51.73;;
21402;SDS011;10862;51.886;17.078;2024-01-10T07:29:16;114.23;;;52.13;;
21402;SDS011;10862;51.886;17.078;2024-01-10T07:31:42;183.87;;;64.10;;
21402;SDS011;10862;51.886;17.078;2024-01-10T07:34:07;221.87;;;80.07;;
21402;SDS011;10862;51.886;17.078;2024-01-10T07:36:33;205.20;;;82.97;;
21402;SDS011;10862;51.886;17.078;2024-01-10T07:39:05;174.23;;;70.03;;
21402;SDS011;10862;51.886;17.078;2024-01-10T07:41:31;140.03;;;67.73;;
21402;SDS011;10862;51.886;17.078;2024-01-10T07:43:57;138.00;;;61.50;;
21402;SDS011;10862;51.886;17.078;2024-01-10T07:46:23;157.53;;;63.03;;
21402;SDS011;10862;51.886;17.078;2024-01-10T07:48:48;158.33;;;61.67;;
21402;SDS011;10862;51.886;17.078;2024-01-10T07:51:14;127.53;;;57.50;;
21402;SDS011;10862;51.886;17.078;2024-01-10T07:53:40;146.70;;;59.17;;
21402;SDS011;10862;51.886;17.078;2024-01-10T07:56:05;116.43;;;54.00;;
21402;SDS011;10862;51.886;17.078;2024-01-10T07:58:31;136.70;;;59.53;;
21402;SDS011;10862;51.886;17.078;2024-01-10T08:00:57;136.67;;;58.07;;
21402;SDS011;10862;51.886;17.078;2024-01-10T08:03:22;112.20;;;51.50;;
21402;SDS011;10862;51.886;17.078;2024-01-10T08:05:48;98.40;;;45.73;;
21402;SDS011;10862;51.886;17.078;2024-01-10T08:08:14;127.10;;;52.93;;
21402;SDS011;10862;51.886;17.078;2024-01-10T08:10:41;109.00;;;52.07;;
21402;SDS011;10862;51.886;17.078;2024-01-10T08:13:07;132.90;;;59.90;;
21402;SDS011;10862;51.886;17.078;2024-01-10T08:15:33;88.87;;;42.97;;
21402;SDS011;10862;51.886;17.078;2024-01-10T08:18:01;144.57;;;61.27;;
21402;SDS011;10862;51.886;17.078;2024-01-10T08:20:32;182.13;;;73.47;;
21402;SDS011;10862;51.886;17.078;2024-01-10T08:22:58;249.43;;;92.53;;
21402;SDS011;10862;51.886;17.078;2024-01-10T08:25:23;258.93;;;98.00;;
21402;SDS011;10862;51.886;17.078;2024-01-10T08:27:49;238.63;;;90.33;;
21402;SDS011;10862;51.886;17.078;2024-01-10T08:30:17;175.77;;;66.83;;
21402;SDS011;10862;51.886;17.078;2024-01-10T08:32:42;174.67;;;66.67;;
21402;SDS011;10862;51.886;17.078;2024-01-10T08:35:08;159.90;;;68.23;;
21402;SDS011;10862;51.886;17.078;2024-01-10T08:37:34;119.37;;;57.37;;
21402;SDS011;10862;51.886;17.078;2024-01-10T08:40:00;137.33;;;59.17;;
21402;SDS011;10862;51.886;17.078;2024-01-10T08:42:31;136.53;;;63.43;;
21402;SDS011;10862;51.886;17.078;2024-01-10T08:44:57;137.30;;;61.13;;
21402;SDS011;10862;51.886;17.078;2024-01-10T08:47:23;126.63;;;59.30;;
21402;SDS011;10862;51.886;17.078;2024-01-10T08:49:49;190.27;;;82.30;;
21402;SDS011;10862;51.886;17.078;2024-01-10T08:52:15;160.23;;;69.80;;
21402;SDS011;10862;51.886;17.078;2024-01-10T08:54:40;170.07;;;70.70;;
21402;SDS011;10862;51.886;17.078;2024-01-10T08:57:06;669.30;;;283.67;;
21402;SDS011;10862;51.886;17.078;2024-01-10T08:59:31;865.57;;;373.37;;
21402;SDS011;10862;51.886;17.078;2024-01-10T09:01:57;343.33;;;135.93;;
21402;SDS011;10862;51.886;17.078;2024-01-10T09:04:23;348.87;;;147.60;;
21402;SDS011;10862;51.886;17.078;2024-01-10T09:06:50;296.50;;;116.57;;
21402;SDS011;10862;51.886;17.078;2024-01-10T09:09:16;160.33;;;75.47;;
21402;SDS011;10862;51.886;17.078;2024-01-10T09:11:46;280.50;;;107.13;;
21402;SDS011;10862;51.886;17.078;2024-01-10T09:14:13;424.63;;;149.20;;
21402;SDS011;10862;51.886;17.078;2024-01-10T09:16:38;168.53;;;78.23;;
21402;SDS011;10862;51.886;17.078;2024-01-10T09:19:04;159.43;;;70.17;;
21402;SDS011;10862;51.886;17.078;2024-01-10T09:21:30;207.67;;;85.93;;
21402;SDS011;10862;51.886;17.078;2024-01-10T09:23:55;169.37;;;70.00;;
21402;SDS011;10862;51.886;17.078;2024-01-10T09:26:21;159.83;;;74.00;;
21402;SDS011;10862;51.886;17.078;2024-01-10T09:28:47;185.63;;;76.87;;
21402;SDS011;10862;51.886;17.078;2024-01-10T09:31:13;195.37;;;92.07;;
21402;SDS011;10862;51.886;17.078;2024-01-10T09:33:39;176.60;;;85.10;;
21402;SDS011;10862;51.886;17.078;2024-01-10T09:36:05;156.03;;;74.27;;
21402;SDS011;10862;51.886;17.078;2024-01-10T09:38:34;172.57;;;72.90;;
21402;SDS011;10862;51.886;17.078;2024-01-10T09:41:01;159.53;;;69.77;;
21402;SDS011;10862;51.886;17.078;2024-01-10T09:43:32;161.77;;;70.20;;
21402;SDS011;10862;51.886;17.078;2024-01-10T09:46:01;222.33;;;89.40;;
21402;SDS011;10862;51.886;17.078;2024-01-10T09:48:30;277.40;;;125.97;;
21402;SDS011;10862;51.886;17.078;2024-01-10T09:50:56;255.20;;;115.17;;
21402;SDS011;10862;51.886;17.078;2024-01-10T09:53:22;215.40;;;92.30;;
21402;SDS011;10862;51.886;17.078;2024-01-10T09:55:49;174.87;;;79.97;;
21402;SDS011;10862;51.886;17.078;2024-01-10T09:58:15;151.70;;;71.13;;
21402;SDS011;10862;51.886;17.078;2024-01-10T10:00:41;183.07;;;76.77;;
21402;SDS011;10862;51.886;17.078;2024-01-10T10:03:07;236.97;;;101.20;;
21402;SDS011;10862;51.886;17.078;2024-01-10T10:05:37;212.07;;;90.70;;
21402;SDS011;10862;51.886;17.078;2024-01-10T10:08:06;213.67;;;91.17;;
21402;SDS011;10862;51.886;17.078;2024-01-10T10:10:32;208.30;;;90.83;;
21402;SDS011;10862;51.886;17.078;2024-01-10T10:12:58;253.23;;;100.57;;
21402;SDS011;10862;51.886;17.078;2024-01-10T10:15:24;217.57;;;96.17;;
21402;SDS011;10862;51.886;17.078;2024-01-10T10:17:51;177.93;;;83.10;;
21402;SDS011;10862;51.886;17.078;2024-01-10T10:20:28;212.83;;;89.27;;
21402;SDS011;10862;51.886;17.078;2024-01-10T10:27:56;207.87;;;90.37;;
21402;SDS011;10862;51.886;17.078;2024-01-10T10:30:22;225.47;;;90.00;;
21402;SDS011;10862;51.886;17.078;2024-01-10T10:32:49;219.70;;;89.87;;
21402;SDS011;10862;51.886;17.078;2024-01-10T10:35:15;222.30;;;89.07;;
21402;SDS011;10862;51.886;17.078;2024-01-10T10:37:41;201.37;;;86.13;;
21402;SDS011;10862;51.886;17.078;2024-01-10T10:40:06;236.63;;;95.90;;
21402;SDS011;10862;51.886;17.078;2024-01-10T10:42:36;226.67;;;89.67;;
21402;SDS011;10862;51.886;17.078;2024-01-10T10:45:09;212.43;;;88.57;;
21402;SDS011;10862;51.886;17.078;2024-01-10T10:47:45;228.00;;;105.30;;
21402;SDS011;10862;51.886;17.078;2024-01-10T10:50:17;187.87;;;75.57;;
21402;SDS011;10862;51.886;17.078;2024-01-10T10:52:46;191.63;;;87.77;;
21402;SDS011;10862;51.886;17.078;2024-01-10T10:55:17;170.23;;;85.27;;
21402;SDS011;10862;51.886;17.078;2024-01-10T10:57:44;203.60;;;93.37;;
21402;SDS011;10862;51.886;17.078;2024-01-10T11:00:22;192.67;;;96.33;;
21402;SDS011;10862;51.886;17.078;2024-01-10T11:02:55;169.60;;;84.27;;
21402;SDS011;10862;51.886;17.078;2024-01-10T11:05:22;159.97;;;78.70;;
21402;SDS011;10862;51.886;17.078;2024-01-10T11:07:49;173.87;;;82.73;;
21402;SDS011;10862;51.886;17.078;2024-01-10T11:10:30;253.53;;;97.27;;
21402;SDS011;10862;51.886;17.078;2024-01-10T11:18:54;339.33;;;103.53;;
21402;SDS011;10862;51.886;17.078;2024-01-10T11:24:29;178.90;;;69.37;;
21402;SDS011;10862;51.886;17.078;2024-01-10T11:27:12;183.40;;;67.20;;
21402;SDS011;10862;51.886;17.078;2024-01-10T11:29:38;151.13;;;66.20;;
21402;SDS011;10862;51.886;17.078;2024-01-10T11:32:14;183.43;;;78.33;;
21402;SDS011;10862;51.886;17.078;2024-01-10T11:37:18;180.17;;;71.07;;
21402;SDS011;10862;51.886;17.078;2024-01-10T11:39:44;156.60;;;68.77;;
21402;SDS011;10862;51.886;17.078;2024-01-10T11:42:10;178.10;;;70.57;;
21402;SDS011;10862;51.886;17.078;2024-01-10T11:44:46;146.57;;;64.13;;
21402;SDS011;10862;51.886;17.078;2024-01-10T11:47:15;161.63;;;67.47;;
21402;SDS011;10862;51.886;17.078;2024-01-10T11:53:05;142.53;;;68.40;;
21402;SDS011;10862;51.886;17.078;2024-01-10T11:55:46;173.97;;;76.17;;
21402;SDS011;10862;51.886;17.078;2024-01-10T11:58:17;123.63;;;56.27;;
21402;SDS011;10862;51.886;17.078;2024-01-10T12:00:42;120.63;;;53.43;;
21402;SDS011;10862;51.886;17.078;2024-01-10T12:03:09;132.13;;;58.87;;
21402;SDS011;10862;51.886;17.078;2024-01-10T12:05:39;124.17;;;56.13;;
21402;SDS011;10862;51.886;17.078;2024-01-10T12:08:06;155.50;;;68.80;;
21402;SDS011;10862;51.886;17.078;2024-01-10T12:10:32;185.47;;;83.33;;
21402;SDS011;10862;51.886;17.078;2024-01-10T12:13:01;149.33;;;65.57;;
21402;SDS011;10862;51.886;17.078;2024-01-10T12:15:28;149.00;;;66.33;;
21402;SDS011;10862;51.886;17.078;2024-01-10T12:17:54;142.93;;;71.53;;
21402;SDS011;10862;51.886;17.078;2024-01-10T12:20:21;145.73;;;62.20;;
21402;SDS011;10862;51.886;17.078;2024-01-10T12:22:46;129.83;;;62.33;;
21402;SDS011;10862;51.886;17.078;2024-01-10T12:25:12;158.63;;;72.87;;
21402;SDS011;10862;51.886;17.078;2024-01-10T12:27:38;154.90;;;71.17;;
21402;SDS011;10862;51.886;17.078;2024-01-10T12:30:04;157.87;;;72.13;;
21402;SDS011;10862;51.886;17.078;2024-01-10T12:32:30;171.80;;;77.07;;
21402;SDS011;10862;51.886;17.078;2024-01-10T12:35:03;162.77;;;69.13;;
21402;SDS011;10862;51.886;17.078;2024-01-10T12:37:30;171.37;;;68.67;;
21402;SDS011;10862;51.886;17.078;2024-01-10T12:39:56;180.43;;;90.00;;
21402;SDS011;10862;51.886;17.078;2024-01-10T12:42:22;236.03;;;106.40;;
21402;SDS011;10862;51.886;17.078;2024-01-10T12:44:48;240.23;;;117.83;;
21402;SDS011;10862;51.886;17.078;2024-01-10T12:47:18;209.90;;;103.20;;
21402;SDS011;10862;51.886;17.078;2024-01-10T12:49:47;239.57;;;129.70;;
21402;SDS011;10862;51.886;17.078;2024-01-10T12:52:13;177.13;;;91.57;;
21402;SDS011;10862;51.886;17.078;2024-01-10T12:54:39;190.70;;;97.77;;
21402;SDS011;10862;51.886;17.078;2024-01-10T12:57:05;170.33;;;83.60;;
21402;SDS011;10862;51.886;17.078;2024-01-10T12:59:34;129.53;;;59.77;;
21402;SDS011;10862;51.886;17.078;2024-01-10T13:02:00;204.27;;;92.93;;
21402;SDS011;10862;51.886;17.078;2024-01-10T13:04:25;116.17;;;59.50;;
21402;SDS011;10862;51.886;17.078;2024-01-10T13:06:51;235.13;;;92.87;;
21402;SDS011;10862;51.886;17.078;2024-01-10T13:09:17;219.43;;;79.87;;
21402;SDS011;10862;51.886;17.078;2024-01-10T13:11:43;144.23;;;62.07;;
21402;SDS011;10862;51.886;17.078;2024-01-10T13:14:10;314.63;;;108.03;;
21402;SDS011;10862;51.886;17.078;2024-01-10T13:16:36;332.70;;;107.23;;
21402;SDS011;10862;51.886;17.078;2024-01-10T13:19:02;466.57;;;138.80;;
21402;SDS011;10862;51.886;17.078;2024-01-10T13:21:28;661.40;;;211.00;;
21402;SDS011;10862;51.886;17.078;2024-01-10T13:23:53;212.90;;;85.37;;
21402;SDS011;10862;51.886;17.078;2024-01-10T13:26:19;246.30;;;83.20;;
21402;SDS011;10862;51.886;17.078;2024-01-10T13:28:45;160.27;;;61.50;;
21402;SDS011;10862;51.886;17.078;2024-01-10T13:31:11;179.10;;;64.03;;
21402;SDS011;10862;51.886;17.078;2024-01-10T13:33:36;170.50;;;69.93;;
21402;SDS011;10862;51.886;17.078;2024-01-10T13:36:03;285.67;;;106.97;;
21402;SDS011;10862;51.886;17.078;2024-01-10T13:38:29;192.47;;;80.67;;
21402;SDS011;10862;51.886;17.078;2024-01-10T13:40:55;217.93;;;80.57;;
21402;SDS011;10862;51.886;17.078;2024-01-10T13:43:21;262.00;;;101.53;;
21402;SDS011;10862;51.886;17.078;2024-01-10T13:45:47;253.87;;;92.73;;
21402;SDS011;10862;51.886;17.078;2024-01-10T13:48:12;234.97;;;91.50;;
21402;SDS011;10862;51.886;17.078;2024-01-10T13:50:39;382.50;;;124.17;;
21402;SDS011;10862;51.886;17.078;2024-01-10T13:53:04;187.60;;;66.67;;
21402;SDS011;10862;51.886;17.078;2024-01-10T13:55:30;139.73;;;63.33;;
21402;SDS011;10862;51.886;17.078;2024-01-10T13:57:56;209.40;;;80.97;;
21402;SDS011;10862;51.886;17.078;2024-01-10T14:00:22;172.97;;;66.30;;
21402;SDS011;10862;51.886;17.078;2024-01-10T14:02:48;146.63;;;60.13;;
21402;SDS011;10862;51.886;17.078;2024-01-10T14:05:14;184.83;;;67.63;;
21402;SDS011;10862;51.886;17.078;2024-01-10T14:07:40;148.13;;;60.60;;
21402;SDS011;10862;51.886;17.078;2024-01-10T14:10:09;192.80;;;69.20;;
21402;SDS011;10862;51.886;17.078;2024-01-10T14:12:36;160.23;;;67.97;;
21402;SDS011;10862;51.886;17.078;2024-01-10T14:15:02;153.40;;;64.83;;